sensor_id;sensor_type;location;lat;lon;timestamp;temperature;humidity
3690;DHT22;1861;50.240;8.596;2023-04-24T00:01:43;13.30;99.90
3690;DHT22;1861;50.240;8.596;2023-04-24T00:04:13;13.30;99.90
3690;DHT22;1861;50.240;8.596;2023-04-24T00:06:43;13.30;99.90
3690;DHT22;1861;50.240;8.596;2023-04-24T00:09:16;13.30;99.90
3690;DHT22;1861;50.240;8.596;2023-04-24T00:11:44;13.30;99.90
3690;DHT22;1861;50.240;8.596;2023-04-24T00:14:12;13.30;99.90
3690;DHT22;1861;50.240;8.596;2023-04-24T00:16:40;13.30;99.90
3690;DHT22;1861;50.240;8.596;2023-04-24T00:19:08;13.30;99.90
3690;DHT22;1861;50.240;8.596;2023-04-24T00:21:39;13.30;99.90
3690;DHT22;1861;50.240;8.596;2023-04-24T00:24:08;13.30;99.90
3690;DHT22;1861;50.240;8.596;2023-04-24T00:26:36;13.40;99.90
3690;DHT22;1861;50.240;8.596;2023-04-24T00:29:04;13.30;99.90
3690;DHT22;1861;50.240;8.596;2023-04-24T00:31:32;13.40;99.90
3690;DHT22;1861;50.240;8.596;2023-04-24T00:34:01;13.30;99.90
3690;DHT22;1861;50.240;8.596;2023-04-24T00:36:30;13.30;99.90
3690;DHT22;1861;50.240;8.596;2023-04-24T00:39:00;13.30;99.90
3690;DHT22;1861;50.240;8.596;2023-04-24T00:41:29;13.30;99.90
3690;DHT22;1861;50.240;8.596;2023-04-24T00:43:58;13.30;99.90
3690;DHT22;1861;50.240;8.596;2023-04-24T00:46:26;13.30;99.90
3690;DHT22;1861;50.240;8.596;2023-04-24T00:48:56;13.30;99.90
3690;DHT22;1861;50.240;8.596;2023-04-24T00:51:24;13.30;99.90
3690;DHT22;1861;50.240;8.596;2023-04-24T00:53:52;13.30;99.90
3690;DHT22;1861;50.240;8.596;2023-04-24T00:56:21;13.30;99.90
3690;DHT22;1861;50.240;8.596;2023-04-24T00:58:50;13.30;99.90
3690;DHT22;1861;50.240;8.596;2023-04-24T01:01:19;13.30;99.90
3690;DHT22;1861;50.240;8.596;2023-04-24T01:03:52;13.30;99.90
3690;DHT22;1861;50.240;8.596;2023-04-24T01:06:22;13.30;99.90
3690;DHT22;1861;50.240;8.596;2023-04-24T01:08:52;13.30;99.90
3690;DHT22;1861;50.240;8.596;2023-04-24T01:11:24;13.30;99.90
3690;DHT22;1861;50.240;8.596;2023-04-24T01:13:52;13.30;99.90
3690;DHT22;1861;50.240;8.596;2023-04-24T01:16:20;13.30;99.90
3690;DHT22;1861;50.240;8.596;2023-04-24T01:18:49;13.30;99.90
3690;DHT22;1861;50.240;8.596;2023-04-24T01:21:20;13.30;99.90
3690;DHT22;1861;50.240;8.596;2023-04-24T01:23:51;13.30;99.90
3690;DHT22;1861;50.240;8.596;2023-04-24T01:26:19;13.30;99.90
3690;DHT22;1861;50.240;8.596;2023-04-24T01:28:48;13.30;99.90
3690;DHT22;1861;50.240;8.596;2023-04-24T01:31:16;13.30;99.90
3690;DHT22;1861;50.240;8.596;2023-04-24T01:33:45;13.30;99.90
3690;DHT22;1861;50.240;8.596;2023-04-24T01:36:13;13.30;99.90
3690;DHT22;1861;50.240;8.596;2023-04-24T01:38:41;13.30;99.90
3690;DHT22;1861;50.240;8.596;2023-04-24T01:41:11;13.30;99.90
3690;DHT22;1861;50.240;8.596;2023-04-24T01:43:39;13.30;99.90
3690;DHT22;1861;50.240;8.596;2023-04-24T01:46:07;13.30;99.90
3690;DHT22;1861;50.240;8.596;2023-04-24T01:48:35;13.30;99.90
3690;DHT22;1861;50.240;8.596;2023-04-24T01:51:04;13.20;99.90
3690;DHT22;1861;50.240;8.596;2023-04-24T01:53:32;13.20;99.90
3690;DHT22;1861;50.240;8.596;2023-04-24T01:56:00;13.30;99.90
3690;DHT22;1861;50.240;8.596;2023-04-24T01:58:30;13.30;99.90
3690;DHT22;1861;50.240;8.596;2023-04-24T02:00:59;13.20;99.90
3690;DHT22;1861;50.240;8.596;2023-04-24T02:03:28;13.20;99.90
3690;DHT22;1861;50.240;8.596;2023-04-24T02:05:57;13.20;99.90
3690;DHT22;1861;50.240;8.596;2023-04-24T02:08:25;13.20;99.90
3690;DHT22;1861;50.240;8.596;2023-04-24T02:10:53;13.20;99.90
3690;DHT22;1861;50.240;8.596;2023-04-24T02:13:21;13.20;99.90
3690;DHT22;1861;50.240;8.596;2023-04-24T02:15:51;13.20;99.90
3690;DHT22;1861;50.240;8.596;2023-04-24T02:18:19;13.20;99.90
3690;DHT22;1861;50.240;8.596;2023-04-24T02:20:50;13.20;99.90
3690;DHT22;1861;50.240;8.596;2023-04-24T02:23:18;13.10;99.90
3690;DHT22;1861;50.240;8.596;2023-04-24T02:25:46;13.10;99.90
3690;DHT22;1861;50.240;8.596;2023-04-24T02:28:14;13.10;99.90
3690;DHT22;1861;50.240;8.596;2023-04-24T02:30:42;13.20;99.90
3690;DHT22;1861;50.240;8.596;2023-04-24T02:33:12;13.20;99.90
3690;DHT22;1861;50.240;8.596;2023-04-24T02:35:40;13.10;99.90
3690;DHT22;1861;50.240;8.596;2023-04-24T02:38:08;13.20;99.90
3690;DHT22;1861;50.240;8.596;2023-04-24T02:40:36;13.20;99.90
3690;DHT22;1861;50.240;8.596;2023-04-24T02:43:04;13.20;99.90
3690;DHT22;1861;50.240;8.596;2023-04-24T02:45:32;13.20;99.90
3690;DHT22;1861;50.240;8.596;2023-04-24T02:48:01;13.20;99.90
3690;DHT22;1861;50.240;8.596;2023-04-24T02:50:31;13.20;99.90
3690;DHT22;1861;50.240;8.596;2023-04-24T02:53:00;13.10;99.90
3690;DHT22;1861;50.240;8.596;2023-04-24T02:55:28;13.10;99.90
3690;DHT22;1861;50.240;8.596;2023-04-24T02:57:56;13.10;99.90
3690;DHT22;1861;50.240;8.596;2023-04-24T03:00:24;13.10;99.90
3690;DHT22;1861;50.240;8.596;2023-04-24T03:02:52;13.10;99.90
3690;DHT22;1861;50.240;8.596;2023-04-24T03:05:21;13.00;99.90
3690;DHT22;1861;50.240;8.596;2023-04-24T03:07:50;13.00;99.90
3690;DHT22;1861;50.240;8.596;2023-04-24T03:10:20;13.00;99.90
3690;DHT22;1861;50.240;8.596;2023-04-24T03:12:50;13.00;99.90
3690;DHT22;1861;50.240;8.596;2023-04-24T03:15:18;13.00;99.90
3690;DHT22;1861;50.240;8.596;2023-04-24T03:17:46;13.00;99.90
3690;DHT22;1861;50.240;8.596;2023-04-24T03:20:15;13.00;99.90
3690;DHT22;1861;50.240;8.596;2023-04-24T07:54:25;13.50;99.90
3690;DHT22;1861;50.240;8.596;2023-04-24T07:56:52;13.40;99.90
3690;DHT22;1861;50.240;8.596;2023-04-24T07:59:20;13.50;99.90
3690;DHT22;1861;50.240;8.596;2023-04-24T08:01:49;13.50;99.90
3690;DHT22;1861;50.240;8.596;2023-04-24T08:04:17;13.50;99.90
3690;DHT22;1861;50.240;8.596;2023-04-24T08:06:47;13.50;99.90
3690;DHT22;1861;50.240;8.596;2023-04-24T08:09:15;13.40;99.90
3690;DHT22;1861;50.240;8.596;2023-04-24T08:11:44;13.30;99.90
3690;DHT22;1861;50.240;8.596;2023-04-24T08:14:12;13.20;99.90
3690;DHT22;1861;50.240;8.596;2023-04-24T08:16:41;13.30;99.90
3690;DHT22;1861;50.240;8.596;2023-04-24T08:19:10;13.50;99.90
3690;DHT22;1861;50.240;8.596;2023-04-24T08:21:38;13.50;99.90
3690;DHT22;1861;50.240;8.596;2023-04-24T08:24:06;13.50;99.90
3690;DHT22;1861;50.240;8.596;2023-04-24T08:26:35;13.40;99.90
3690;DHT22;1861;50.240;8.596;2023-04-24T08:29:04;13.60;99.90
3690;DHT22;1861;50.240;8.596;2023-04-24T08:31:33;13.70;99.80
3690;DHT22;1861;50.240;8.596;2023-04-24T08:34:02;13.70;99.80
3690;DHT22;1861;50.240;8.596;2023-04-24T08:36:30;13.60;99.40
3690;DHT22;1861;50.240;8.596;2023-04-24T08:39:13;13.50;99.30
3690;DHT22;1861;50.240;8.596;2023-04-24T08:41:42;13.50;99.50
3690;DHT22;1861;50.240;8.596;2023-04-24T08:44:13;13.40;99.70
3690;DHT22;1861;50.240;8.596;2023-04-24T08:46:43;13.40;99.50
3690;DHT22;1861;50.240;8.596;2023-04-24T08:49:13;13.30;99.20
3690;DHT22;1861;50.240;8.596;2023-04-24T08:51:43;13.20;99.30
3690;DHT22;1861;50.240;8.596;2023-04-24T08:54:13;13.20;99.30
3690;DHT22;1861;50.240;8.596;2023-04-24T08:56:43;13.20;99.30
3690;DHT22;1861;50.240;8.596;2023-04-24T08:59:13;13.30;99.30
3690;DHT22;1861;50.240;8.596;2023-04-24T09:01:43;13.30;99.10
3690;DHT22;1861;50.240;8.596;2023-04-24T09:04:14;13.30;99.30
3690;DHT22;1861;50.240;8.596;2023-04-24T09:06:45;13.20;99.30
3690;DHT22;1861;50.240;8.596;2023-04-24T09:09:13;13.20;99.10
3690;DHT22;1861;50.240;8.596;2023-04-24T09:11:43;13.20;99.30
3690;DHT22;1861;50.240;8.596;2023-04-24T09:14:12;13.30;99.40
3690;DHT22;1861;50.240;8.596;2023-04-24T09:16:41;13.30;99.20
3690;DHT22;1861;50.240;8.596;2023-04-24T09:19:09;13.30;98.80
3690;DHT22;1861;50.240;8.596;2023-04-24T09:21:37;13.30;99.00
3690;DHT22;1861;50.240;8.596;2023-04-24T09:24:15;13.30;99.10
3690;DHT22;1861;50.240;8.596;2023-04-24T09:26:45;13.30;99.00
3690;DHT22;1861;50.240;8.596;2023-04-24T09:29:16;13.40;99.50
3690;DHT22;1861;50.240;8.596;2023-04-24T09:31:45;13.50;99.40
3690;DHT22;1861;50.240;8.596;2023-04-24T09:34:13;13.40;99.50
3690;DHT22;1861;50.240;8.596;2023-04-24T09:36:42;13.40;99.60
3690;DHT22;1861;50.240;8.596;2023-04-24T09:39:13;13.40;99.50
3690;DHT22;1861;50.240;8.596;2023-04-24T09:41:46;13.40;99.70
3690;DHT22;1861;50.240;8.596;2023-04-24T09:44:17;13.40;99.70
3690;DHT22;1861;50.240;8.596;2023-04-24T09:46:50;13.30;99.80
3690;DHT22;1861;50.240;8.596;2023-04-24T09:49:22;13.40;99.80
3690;DHT22;1861;50.240;8.596;2023-04-24T09:51:50;13.30;99.70
3690;DHT22;1861;50.240;8.596;2023-04-24T09:54:20;13.30;99.80
3690;DHT22;1861;50.240;8.596;2023-04-24T09:56:50;13.30;99.90
3690;DHT22;1861;50.240;8.596;2023-04-24T09:59:20;13.30;99.90
3690;DHT22;1861;50.240;8.596;2023-04-24T10:01:49;13.30;99.70
3690;DHT22;1861;50.240;8.596;2023-04-24T10:04:19;13.30;99.70
3690;DHT22;1861;50.240;8.596;2023-04-24T10:06:48;13.40;99.70
3690;DHT22;1861;50.240;8.596;2023-04-24T10:09:17;13.40;99.60
3690;DHT22;1861;50.240;8.596;2023-04-24T10:11:48;13.50;99.60
3690;DHT22;1861;50.240;8.596;2023-04-24T10:14:18;13.50;99.90
3690;DHT22;1861;50.240;8.596;2023-04-24T10:16:49;13.50;99.90
3690;DHT22;1861;50.240;8.596;2023-04-24T10:19:18;13.50;99.90
3690;DHT22;1861;50.240;8.596;2023-04-24T10:21:47;13.50;99.90
3690;DHT22;1861;50.240;8.596;2023-04-24T10:24:16;13.50;99.90
3690;DHT22;1861;50.240;8.596;2023-04-24T10:26:45;13.40;99.90
3690;DHT22;1861;50.240;8.596;2023-04-24T10:29:16;13.40;99.90
3690;DHT22;1861;50.240;8.596;2023-04-24T10:31:45;13.40;99.90
3690;DHT22;1861;50.240;8.596;2023-04-24T10:34:16;13.40;99.90
3690;DHT22;1861;50.240;8.596;2023-04-24T10:36:48;13.40;99.90
3690;DHT22;1861;50.240;8.596;2023-04-24T10:39:18;13.30;99.90
3690;DHT22;1861;50.240;8.596;2023-04-24T10:41:54;13.40;99.90
3690;DHT22;1861;50.240;8.596;2023-04-24T10:44:24;13.40;99.90
3690;DHT22;1861;50.240;8.596;2023-04-24T10:46:55;13.40;99.90
3690;DHT22;1861;50.240;8.596;2023-04-24T10:49:29;13.40;99.90
3690;DHT22;1861;50.240;8.596;2023-04-24T10:52:01;13.40;99.90
3690;DHT22;1861;50.240;8.596;2023-04-24T10:54:34;13.50;99.90
3690;DHT22;1861;50.240;8.596;2023-04-24T10:57:28;13.60;99.90
3690;DHT22;1861;50.240;8.596;2023-04-24T11:00:13;13.70;99.90
3690;DHT22;1861;50.240;8.596;2023-04-24T11:02:42;13.80;99.90
3690;DHT22;1861;50.240;8.596;2023-04-24T11:05:17;13.80;99.90
3690;DHT22;1861;50.240;8.596;2023-04-24T11:08:11;13.70;99.90
3690;DHT22;1861;50.240;8.596;2023-04-24T11:10:41;13.80;99.90
3690;DHT22;1861;50.240;8.596;2023-04-24T11:13:14;13.80;99.90
3690;DHT22;1861;50.240;8.596;2023-04-24T11:15:43;13.80;99.90
3690;DHT22;1861;50.240;8.596;2023-04-24T11:18:14;13.80;99.90
3690;DHT22;1861;50.240;8.596;2023-04-24T11:20:45;13.80;99.90
3690;DHT22;1861;50.240;8.596;2023-04-24T11:23:14;13.80;99.90
3690;DHT22;1861;50.240;8.596;2023-04-24T11:25:42;13.80;99.90
3690;DHT22;1861;50.240;8.596;2023-04-24T11:28:14;13.80;99.90
3690;DHT22;1861;50.240;8.596;2023-04-24T11:30:43;13.80;99.90
3690;DHT22;1861;50.240;8.596;2023-04-24T11:33:12;13.80;99.90
3690;DHT22;1861;50.240;8.596;2023-04-24T11:35:48;13.80;99.90
3690;DHT22;1861;50.240;8.596;2023-04-24T11:38:18;13.80;99.90
3690;DHT22;1861;50.240;8.596;2023-04-24T11:40:51;13.70;99.90
3690;DHT22;1861;50.240;8.596;2023-04-24T11:43:20;13.80;99.90
3690;DHT22;1861;50.240;8.596;2023-04-24T11:45:49;13.80;99.90
3690;DHT22;1861;50.240;8.596;2023-04-24T11:48:19;13.70;99.90
3690;DHT22;1861;50.240;8.596;2023-04-24T11:50:51;13.60;99.90
3690;DHT22;1861;50.240;8.596;2023-04-24T11:53:20;13.60;99.90
3690;DHT22;1861;50.240;8.596;2023-04-24T11:55:49;13.60;99.90
3690;DHT22;1861;50.240;8.596;2023-04-24T11:58:20;13.60;99.90
3690;DHT22;1861;50.240;8.596;2023-04-24T12:00:56;13.60;99.90
3690;DHT22;1861;50.240;8.596;2023-04-24T12:03:24;13.60;99.90
3690;DHT22;1861;50.240;8.596;2023-04-24T12:06:04;13.80;99.90
3690;DHT22;1861;50.240;8.596;2023-04-24T12:08:33;13.90;99.90
3690;DHT22;1861;50.240;8.596;2023-04-24T12:11:05;13.90;99.90
3690;DHT22;1861;50.240;8.596;2023-04-24T12:13:35;14.20;99.90
3690;DHT22;1861;50.240;8.596;2023-04-24T12:16:04;14.30;99.90
3690;DHT22;1861;50.240;8.596;2023-04-24T12:18:32;14.30;99.90
3690;DHT22;1861;50.240;8.596;2023-04-24T12:21:16;14.60;99.90
3690;DHT22;1861;50.240;8.596;2023-04-24T12:23:48;14.70;99.90
3690;DHT22;1861;50.240;8.596;2023-04-24T12:26:18;14.80;99.90
3690;DHT22;1861;50.240;8.596;2023-04-24T12:28:48;14.90;99.90
3690;DHT22;1861;50.240;8.596;2023-04-24T12:31:17;15.00;99.90
3690;DHT22;1861;50.240;8.596;2023-04-24T12:33:45;15.00;99.90
3690;DHT22;1861;50.240;8.596;2023-04-24T12:36:13;15.10;99.70
3690;DHT22;1861;50.240;8.596;2023-04-24T12:38:43;15.00;99.30
3690;DHT22;1861;50.240;8.596;2023-04-24T12:41:13;15.00;99.10
3690;DHT22;1861;50.240;8.596;2023-04-24T12:43:52;15.00;99.00
3690;DHT22;1861;50.240;8.596;2023-04-24T12:46:20;15.00;98.70
3690;DHT22;1861;50.240;8.596;2023-04-24T12:48:49;14.90;98.20
3690;DHT22;1861;50.240;8.596;2023-04-24T12:51:17;14.60;97.80
3690;DHT22;1861;50.240;8.596;2023-04-24T12:53:46;14.40;97.70
3690;DHT22;1861;50.240;8.596;2023-04-24T12:56:14;14.40;98.10
3690;DHT22;1861;50.240;8.596;2023-04-24T12:58:42;14.40;98.20
3690;DHT22;1861;50.240;8.596;2023-04-24T13:01:11;14.40;98.50
3690;DHT22;1861;50.240;8.596;2023-04-24T13:03:39;14.50;98.70
3690;DHT22;1861;50.240;8.596;2023-04-24T13:06:08;14.40;98.80
3690;DHT22;1861;50.240;8.596;2023-04-24T13:08:36;14.30;99.20
3690;DHT22;1861;50.240;8.596;2023-04-24T13:11:05;14.30;99.30
3690;DHT22;1861;50.240;8.596;2023-04-24T13:13:33;14.30;99.50
3690;DHT22;1861;50.240;8.596;2023-04-24T13:16:01;14.40;99.80
3690;DHT22;1861;50.240;8.596;2023-04-24T13:18:29;14.50;99.70
3690;DHT22;1861;50.240;8.596;2023-04-24T13:20:57;14.70;99.60
3690;DHT22;1861;50.240;8.596;2023-04-24T13:23:26;14.60;99.30
3690;DHT22;1861;50.240;8.596;2023-04-24T13:25:54;14.60;99.40
3690;DHT22;1861;50.240;8.596;2023-04-24T13:28:25;14.60;99.30
3690;DHT22;1861;50.240;8.596;2023-04-24T13:30:53;14.50;99.00
3690;DHT22;1861;50.240;8.596;2023-04-24T13:33:21;14.50;99.10
3690;DHT22;1861;50.240;8.596;2023-04-24T13:35:49;14.40;99.10
3690;DHT22;1861;50.240;8.596;2023-04-24T13:38:17;14.20;99.60
3690;DHT22;1861;50.240;8.596;2023-04-24T13:40:48;13.90;99.90
3690;DHT22;1861;50.240;8.596;2023-04-24T13:43:16;13.80;99.90
3690;DHT22;1861;50.240;8.596;2023-04-24T13:45:46;13.90;99.90
3690;DHT22;1861;50.240;8.596;2023-04-24T13:48:14;14.00;99.90
3690;DHT22;1861;50.240;8.596;2023-04-24T13:50:42;14.10;99.90
3690;DHT22;1861;50.240;8.596;2023-04-24T13:53:10;14.30;99.90
3690;DHT22;1861;50.240;8.596;2023-04-24T13:55:39;14.30;99.90
3690;DHT22;1861;50.240;8.596;2023-04-24T13:58:07;14.40;99.90
3690;DHT22;1861;50.240;8.596;2023-04-24T14:00:35;14.40;99.90
3690;DHT22;1861;50.240;8.596;2023-04-24T14:03:04;14.30;99.40
3690;DHT22;1861;50.240;8.596;2023-04-24T14:05:32;14.30;99.40
3690;DHT22;1861;50.240;8.596;2023-04-24T14:08:04;14.40;99.90
3690;DHT22;1861;50.240;8.596;2023-04-24T14:10:33;14.40;99.30
3690;DHT22;1861;50.240;8.596;2023-04-24T14:13:01;14.40;99.50
3690;DHT22;1861;50.240;8.596;2023-04-24T14:15:29;14.40;99.50
3690;DHT22;1861;50.240;8.596;2023-04-24T14:17:57;14.50;99.60
3690;DHT22;1861;50.240;8.596;2023-04-24T14:20:26;14.50;99.20
3690;DHT22;1861;50.240;8.596;2023-04-24T14:22:54;14.50;99.00
3690;DHT22;1861;50.240;8.596;2023-04-24T14:25:25;14.50;98.50
3690;DHT22;1861;50.240;8.596;2023-04-24T14:27:54;14.40;98.30
3690;DHT22;1861;50.240;8.596;2023-04-24T14:30:22;14.40;98.50
3690;DHT22;1861;50.240;8.596;2023-04-24T14:32:50;14.30;98.40
3690;DHT22;1861;50.240;8.596;2023-04-24T14:35:18;14.20;98.30
3690;DHT22;1861;50.240;8.596;2023-04-24T14:37:47;14.10;98.50
3690;DHT22;1861;50.240;8.596;2023-04-24T14:40:16;14.00;98.30
3690;DHT22;1861;50.240;8.596;2023-04-24T14:43:04;14.00;98.50
3690;DHT22;1861;50.240;8.596;2023-04-24T14:45:34;14.00;99.20
3690;DHT22;1861;50.240;8.596;2023-04-24T14:48:02;14.00;99.80
3690;DHT22;1861;50.240;8.596;2023-04-24T14:50:30;13.90;99.90
3690;DHT22;1861;50.240;8.596;2023-04-24T14:52:59;13.90;99.90
3690;DHT22;1861;50.240;8.596;2023-04-24T14:55:28;14.00;99.90
3690;DHT22;1861;50.240;8.596;2023-04-24T14:57:57;14.20;99.90
3690;DHT22;1861;50.240;8.596;2023-04-24T15:00:25;14.30;99.90
3690;DHT22;1861;50.240;8.596;2023-04-24T15:02:53;14.30;99.90
3690;DHT22;1861;50.240;8.596;2023-04-24T15:05:22;14.30;99.90
3690;DHT22;1861;50.240;8.596;2023-04-24T15:07:51;14.30;99.90
3690;DHT22;1861;50.240;8.596;2023-04-24T15:10:21;14.30;99.80
3690;DHT22;1861;50.240;8.596;2023-04-24T15:12:50;14.30;99.80
3690;DHT22;1861;50.240;8.596;2023-04-24T15:15:20;14.20;99.50
3690;DHT22;1861;50.240;8.596;2023-04-24T15:17:48;14.10;98.80
3690;DHT22;1861;50.240;8.596;2023-04-24T15:20:17;14.20;98.70
3690;DHT22;1861;50.240;8.596;2023-04-24T15:22:45;14.20;98.20
3690;DHT22;1861;50.240;8.596;2023-04-24T15:25:13;14.20;98.00
3690;DHT22;1861;50.240;8.596;2023-04-24T15:27:43;14.30;98.30
3690;DHT22;1861;50.240;8.596;2023-04-24T15:30:13;14.30;97.90
3690;DHT22;1861;50.240;8.596;2023-04-24T15:32:41;14.20;97.40
3690;DHT22;1861;50.240;8.596;2023-04-24T15:35:10;14.20;97.50
3690;DHT22;1861;50.240;8.596;2023-04-24T15:37:38;14.20;97.50
3690;DHT22;1861;50.240;8.596;2023-04-24T15:40:07;14.20;97.20
3690;DHT22;1861;50.240;8.596;2023-04-24T15:42:37;14.20;97.50
3690;DHT22;1861;50.240;8.596;2023-04-24T15:45:08;14.10;96.90
3690;DHT22;1861;50.240;8.596;2023-04-24T15:47:36;14.20;97.10
3690;DHT22;1861;50.240;8.596;2023-04-24T15:50:06;14.10;96.90
3690;DHT22;1861;50.240;8.596;2023-04-24T15:52:35;14.10;96.90
3690;DHT22;1861;50.240;8.596;2023-04-24T15:55:03;14.10;96.50
3690;DHT22;1861;50.240;8.596;2023-04-24T15:57:32;14.20;96.50
3690;DHT22;1861;50.240;8.596;2023-04-24T16:00:00;14.30;96.90
3690;DHT22;1861;50.240;8.596;2023-04-24T16:02:38;14.40;96.50
3690;DHT22;1861;50.240;8.596;2023-04-24T16:05:07;14.40;96.50
3690;DHT22;1861;50.240;8.596;2023-04-24T16:07:37;14.40;96.50
3690;DHT22;1861;50.240;8.596;2023-04-24T16:10:06;14.40;96.10
3690;DHT22;1861;50.240;8.596;2023-04-24T16:12:34;14.30;96.40
3690;DHT22;1861;50.240;8.596;2023-04-24T16:15:03;14.40;96.60
3690;DHT22;1861;50.240;8.596;2023-04-24T16:17:31;14.40;96.00
3690;DHT22;1861;50.240;8.596;2023-04-24T16:20:00;14.30;95.60
3690;DHT22;1861;50.240;8.596;2023-04-24T16:22:29;14.30;95.80
3690;DHT22;1861;50.240;8.596;2023-04-24T16:24:57;14.30;95.70
3690;DHT22;1861;50.240;8.596;2023-04-24T16:27:25;14.20;95.40
3690;DHT22;1861;50.240;8.596;2023-04-24T16:29:53;14.20;95.50
3690;DHT22;1861;50.240;8.596;2023-04-24T16:32:23;14.20;95.70
3690;DHT22;1861;50.240;8.596;2023-04-24T16:34:51;14.20;95.60
3690;DHT22;1861;50.240;8.596;2023-04-24T16:37:20;14.10;95.40
3690;DHT22;1861;50.240;8.596;2023-04-24T16:39:48;14.10;95.50
3690;DHT22;1861;50.240;8.596;2023-04-24T16:42:16;14.10;95.50
3690;DHT22;1861;50.240;8.596;2023-04-24T16:44:45;14.00;95.40
3690;DHT22;1861;50.240;8.596;2023-04-24T16:47:13;14.00;95.20
3690;DHT22;1861;50.240;8.596;2023-04-24T16:49:41;13.90;95.30
3690;DHT22;1861;50.240;8.596;2023-04-24T16:52:09;13.90;95.70
3690;DHT22;1861;50.240;8.596;2023-04-24T16:54:39;13.90;96.50
3690;DHT22;1861;50.240;8.596;2023-04-24T16:57:07;13.90;96.80
3690;DHT22;1861;50.240;8.596;2023-04-24T16:59:35;13.90;97.00
3690;DHT22;1861;50.240;8.596;2023-04-24T17:02:03;13.90;97.50
3690;DHT22;1861;50.240;8.596;2023-04-24T17:04:31;13.90;97.40
3690;DHT22;1861;50.240;8.596;2023-04-24T17:07:01;14.00;97.40
3690;DHT22;1861;50.240;8.596;2023-04-24T17:09:29;14.00;97.40
3690;DHT22;1861;50.240;8.596;2023-04-24T17:11:59;14.00;97.50
3690;DHT22;1861;50.240;8.596;2023-04-24T17:14:27;14.00;97.50
3690;DHT22;1861;50.240;8.596;2023-04-24T17:16:56;14.00;97.60
3690;DHT22;1861;50.240;8.596;2023-04-24T17:19:24;13.90;97.80
3690;DHT22;1861;50.240;8.596;2023-04-24T17:21:52;13.80;97.90
3690;DHT22;1861;50.240;8.596;2023-04-24T17:24:22;13.80;98.20
3690;DHT22;1861;50.240;8.596;2023-04-24T17:26:50;13.80;98.10
3690;DHT22;1861;50.240;8.596;2023-04-24T17:29:23;13.70;98.10
3690;DHT22;1861;50.240;8.596;2023-04-24T17:31:51;13.70;98.20
3690;DHT22;1861;50.240;8.596;2023-04-24T17:34:20;13.70;98.30
3690;DHT22;1861;50.240;8.596;2023-04-24T17:36:47;13.70;98.30
3690;DHT22;1861;50.240;8.596;2023-04-24T17:39:16;13.60;98.40
3690;DHT22;1861;50.240;8.596;2023-04-24T17:41:44;13.50;98.20
3690;DHT22;1861;50.240;8.596;2023-04-24T17:44:12;13.50;98.40
3690;DHT22;1861;50.240;8.596;2023-04-24T17:46:41;13.50;98.20
3690;DHT22;1861;50.240;8.596;2023-04-24T17:49:09;13.40;98.40
3690;DHT22;1861;50.240;8.596;2023-04-24T17:51:37;13.50;98.60
3690;DHT22;1861;50.240;8.596;2023-04-24T17:54:05;13.50;98.60
3690;DHT22;1861;50.240;8.596;2023-04-24T17:56:33;13.50;98.60
3690;DHT22;1861;50.240;8.596;2023-04-24T17:59:01;13.40;98.50
3690;DHT22;1861;50.240;8.596;2023-04-24T18:01:30;13.40;98.90
3690;DHT22;1861;50.240;8.596;2023-04-24T18:03:59;13.40;98.60
3690;DHT22;1861;50.240;8.596;2023-04-24T18:06:27;13.40;98.50
3690;DHT22;1861;50.240;8.596;2023-04-24T18:08:55;13.30;98.70
3690;DHT22;1861;50.240;8.596;2023-04-24T18:11:23;13.30;98.90
3690;DHT22;1861;50.240;8.596;2023-04-24T18:13:52;13.30;99.00
3690;DHT22;1861;50.240;8.596;2023-04-24T18:16:20;13.30;99.30
3690;DHT22;1861;50.240;8.596;2023-04-24T18:18:51;13.20;99.20
3690;DHT22;1861;50.240;8.596;2023-04-24T18:21:21;13.20;98.90
3690;DHT22;1861;50.240;8.596;2023-04-24T18:23:50;13.20;99.00
3690;DHT22;1861;50.240;8.596;2023-04-24T18:26:18;13.20;99.30
3690;DHT22;1861;50.240;8.596;2023-04-24T18:28:46;13.20;99.30
3690;DHT22;1861;50.240;8.596;2023-04-24T18:31:15;13.20;99.10
3690;DHT22;1861;50.240;8.596;2023-04-24T18:33:43;13.20;99.10
3690;DHT22;1861;50.240;8.596;2023-04-24T18:36:11;13.20;99.10
3690;DHT22;1861;50.240;8.596;2023-04-24T18:38:41;13.30;99.30
3690;DHT22;1861;50.240;8.596;2023-04-24T18:41:10;13.30;99.20
3690;DHT22;1861;50.240;8.596;2023-04-24T18:43:39;13.20;99.10
3690;DHT22;1861;50.240;8.596;2023-04-24T18:46:07;13.20;99.50
3690;DHT22;1861;50.240;8.596;2023-04-24T18:48:35;13.20;99.10
3690;DHT22;1861;50.240;8.596;2023-04-24T18:51:03;13.20;98.80
3690;DHT22;1861;50.240;8.596;2023-04-24T18:53:31;13.20;99.20
3690;DHT22;1861;50.240;8.596;2023-04-24T18:56:01;13.10;99.10
3690;DHT22;1861;50.240;8.596;2023-04-24T18:58:29;13.20;99.30
3690;DHT22;1861;50.240;8.596;2023-04-24T19:00:57;13.20;99.70
3690;DHT22;1861;50.240;8.596;2023-04-24T19:03:25;13.20;99.80
3690;DHT22;1861;50.240;8.596;2023-04-24T19:05:54;13.10;99.90
3690;DHT22;1861;50.240;8.596;2023-04-24T19:08:22;13.10;99.90
3690;DHT22;1861;50.240;8.596;2023-04-24T19:10:50;13.20;99.90
3690;DHT22;1861;50.240;8.596;2023-04-24T19:13:19;13.20;99.90
3690;DHT22;1861;50.240;8.596;2023-04-24T19:15:47;13.20;99.90
3690;DHT22;1861;50.240;8.596;2023-04-24T19:18:15;13.10;99.90
3690;DHT22;1861;50.240;8.596;2023-04-24T19:20:43;13.00;99.90
3690;DHT22;1861;50.240;8.596;2023-04-24T19:23:12;13.00;99.90
3690;DHT22;1861;50.240;8.596;2023-04-24T19:25:40;13.00;99.90
3690;DHT22;1861;50.240;8.596;2023-04-24T19:28:08;12.90;99.90
3690;DHT22;1861;50.240;8.596;2023-04-24T19:30:37;12.90;99.90
3690;DHT22;1861;50.240;8.596;2023-04-24T19:33:06;12.90;99.90
3690;DHT22;1861;50.240;8.596;2023-04-24T19:35:34;12.80;99.90
3690;DHT22;1861;50.240;8.596;2023-04-24T19:38:03;12.80;99.90
3690;DHT22;1861;50.240;8.596;2023-04-24T19:40:31;12.70;99.90
3690;DHT22;1861;50.240;8.596;2023-04-24T19:42:59;12.70;99.90
3690;DHT22;1861;50.240;8.596;2023-04-24T19:45:27;12.80;99.90
3690;DHT22;1861;50.240;8.596;2023-04-24T19:47:57;12.70;99.90
3690;DHT22;1861;50.240;8.596;2023-04-24T19:50:26;12.70;99.90
3690;DHT22;1861;50.240;8.596;2023-04-24T19:52:54;12.70;99.90
3690;DHT22;1861;50.240;8.596;2023-04-24T19:55:22;12.70;99.90
3690;DHT22;1861;50.240;8.596;2023-04-24T19:57:50;12.70;99.90
3690;DHT22;1861;50.240;8.596;2023-04-24T20:00:18;12.70;99.90
3690;DHT22;1861;50.240;8.596;2023-04-24T20:02:46;12.70;99.90
3690;DHT22;1861;50.240;8.596;2023-04-24T20:05:16;12.70;99.90
3690;DHT22;1861;50.240;8.596;2023-04-24T20:07:44;12.70;99.90
3690;DHT22;1861;50.240;8.596;2023-04-24T20:10:12;12.70;99.90
3690;DHT22;1861;50.240;8.596;2023-04-24T20:12:41;12.70;99.90
3690;DHT22;1861;50.240;8.596;2023-04-24T20:15:09;12.70;99.90
3690;DHT22;1861;50.240;8.596;2023-04-24T20:17:38;12.70;99.90
3690;DHT22;1861;50.240;8.596;2023-04-24T20:20:07;12.60;99.90
3690;DHT22;1861;50.240;8.596;2023-04-24T20:22:37;12.60;99.90
3690;DHT22;1861;50.240;8.596;2023-04-24T20:25:06;12.60;99.90
3690;DHT22;1861;50.240;8.596;2023-04-24T20:27:34;12.60;99.90
3690;DHT22;1861;50.240;8.596;2023-04-24T20:30:03;12.60;99.90
3690;DHT22;1861;50.240;8.596;2023-04-24T20:32:32;12.60;99.90
3690;DHT22;1861;50.240;8.596;2023-04-24T20:35:00;12.50;99.90
3690;DHT22;1861;50.240;8.596;2023-04-24T20:37:28;12.50;99.90
3690;DHT22;1861;50.240;8.596;2023-04-24T20:39:57;12.60;99.90
3690;DHT22;1861;50.240;8.596;2023-04-24T20:42:25;12.60;99.90
3690;DHT22;1861;50.240;8.596;2023-04-24T20:44:53;12.60;99.90
3690;DHT22;1861;50.240;8.596;2023-04-24T20:47:21;12.60;99.90